Santa Fe, NM

03:20 MDT le 23 octobre 2014 (GMT -0600)
North Hills | Change Station
CLOSE
Current Station
Stations météorologiques personnelles
Location: Santa Fe, NM
Altitude: 7080 ft
Stations météo à proximité

Alt. 7080 ft 35.70 °N, 105.94 °W | Updated 13 minutes ago

Ciel dégagé
Ciel dégagé
46.1 ° F
Paraît 46 ° F
N
1.0
Vent Variable Vent de ENE
Gusts 3.0 mph

Aujourd'hui
Haut(e) -- | Bas -- ° F
--% Risque de précip.
Hier
Haut(e) -- | Bas -- ° F
Precip. -- pouce
7:17 AM 6:18 PM
Lune descendante, 0% visible
Pression 30.05 pouce
Visibilité 10.0 Miles terrestres
Nuages Ciel dégagé
Refroidissement éolien 46 ° F
Point de rosée 36 ° F
Humidité 68%
Précipitations 0.00 pouce
Profondeur de la couche neigeuse Non disponible.
UV 0 sur 12
Pollen 3.20 sur 12
Qualité de l'air Non disponible.
Flu Activity Sporadic
METAR KSAF 230853Z AUTO 02009KT 10SM CLR 07/02 A3024 RMK AO2 SLP174 T00720022 52003 $

More Conditions Fewer Conditions

Pression 30.05 pouce
Visibilité 10.0 Miles terrestres
Nuages Ciel dégagé
Refroidissement éolien 46 ° F
Point de rosée 36 ° F
Humidité 68%
Précipitations 0.00 pouce
Profondeur de la couche neigeuse Non disponible.
UV 0 sur 12
Pollen 3.20 sur 12
Qualité de l'air Non disponible.
Flu Activity Sporadic
METAR KSAF 230853Z AUTO 02009KT 10SM CLR 07/02 A3024 RMK AO2 SLP174 T00720022 52003 $

More Conditions Fewer Conditions

10-Day Weather Forecast

Almanac

Astronomie

Oct. 23, 2014 Lever Coucher
Temps réel 07:17 MDT 18:18 MDT
Crépuscule civil 06:51 MDT 18:44 MDT
Crépuscule nautique 06:21 MDT 19:14 MDT
Crépuscule astronomique 05:52 MDT 19:43 MDT
Lune 07:00 MDT 18:21 MDT
Durée de lumière visible 11h 52m
Longueur du jour
11h 00m
Tomorrow will be 2m 4s shorter.
Lune descendante, 0% of the Moon is Illuminated
Aujourd'hui
Lune descendante
Oct 23
Nouveau
Oct 30
Premier quartier
Nov 6
Pleine lune
Nov 14
Dernier quartier

Extrêmes aujourd'hui

State Highs State Lows

Community

WunderPhotos

Upload Photos

1,764,199 Photos téléchargées !

Nearby

Épaisseur de neige

Station Depth Altitude
Elk Cabin 1 in 8210 ft
Wesner Springs 3 in 11120 ft
Quemazon 1 in 9500 ft
Gallegos Peak 0 in 9800 ft
Senorita Divide #2 0 in 8600 ft

Activité sismique

Ville Distance Mag. Time & Date
Trinidad, Colorado 111 Miles terrestres 2.7 22:33 MDT
2014-10-20
Minimum magnitude displayed is 2.5.

Températures des eaux côtières

Lieu Température
Aucun rapport de station

Stations météo à proximité